< < Back
Terminal Aerodrome Forecast


Current Version              Previous Versions:   1  2  3  4  5  6  7  8  9  

Terminal Aerodrome Forecast

539
FTUS42 KILM 221700
TAFILM
TAF
KILM 221721Z 2218/2318 32011G19KT P6SM SKC
     FM222200 33011KT P6SM SKC
     FM230400 33005KT P6SM SKC
     FM231400 30010KT P6SM SKC=

Latest METAR

437
SAUS70 KWBC 232058
MTRILM
METAR KILM 232053Z 27013KT 10SM CLR 21/07 A2991 RMK AO2 SLP128 T02060067
56014


USA.gov is the U.S. government's official web portal to all federal, state and local government web resources and services.